Time;durP1;ratioP1;P1;durP2;ratioP2;P2;SDS_P1;SDS_P2;PMS_P1;PMS_P2;Temp;Humidity;BMP_temperature;BMP_pressure;BME280_temperature;BME280_humidity;BME280_pressure;Samples;Min_cycle;Max_cycle;Signal;HPM_P1;HPM_P2
2023/06/14 00:02:04;;;;;;;6.47;3.45;;;;;;;17.18;40.45;101284.13;5051198;28;20222;-77
2023/06/14 00:04:33;;;;;;;7.05;3.75;;;;;;;17.12;40.86;101285.84;5045315;28;20037;-76
2023/06/14 00:07:01;;;;;;;5.03;3.67;;;;;;;17.02;40.99;101285.59;5048507;28;20037;-77
2023/06/14 00:09:27;;;;;;;6.05;3.58;;;;;;;16.96;41.32;101287.34;5050278;28;20022;-77
2023/06/14 00:11:52;;;;;;;4.68;3.40;;;;;;;16.87;41.37;101285.13;5044902;28;20568;-78
2023/06/14 00:14:17;;;;;;;4.65;3.53;;;;;;;16.81;41.57;101284.16;5045958;28;20021;-78
2023/06/14 00:16:43;;;;;;;7.00;3.40;;;;;;;16.73;41.96;101285.31;5050266;28;20022;-77
2023/06/14 00:19:10;;;;;;;9.13;3.83;;;;;;;16.70;42.08;101288.47;5050482;28;20082;-77
2023/06/14 00:21:36;;;;;;;5.13;3.50;;;;;;;16.61;42.49;101289.81;5047712;28;20104;-78
2023/06/14 00:24:01;;;;;;;7.00;3.90;;;;;;;16.62;42.61;101283.31;5046479;28;20117;-78
2023/06/14 00:26:27;;;;;;;5.85;3.50;;;;;;;16.56;42.65;101289.69;5044000;28;20031;-77
2023/06/14 00:28:53;;;;;;;6.50;3.60;;;;;;;16.54;42.72;101284.47;5032914;28;20258;-77
2023/06/14 00:31:21;;;;;;;6.18;3.58;;;;;;;16.51;42.88;101293.06;5046499;28;20020;-78
2023/06/14 00:33:47;;;;;;;8.18;3.50;;;;;;;16.45;43.10;101297.50;5052078;28;20029;-77
2023/06/14 00:36:14;;;;;;;7.45;3.70;;;;;;;16.42;42.87;101299.88;5022238;28;20033;-77
2023/06/14 00:38:39;;;;;;;7.00;3.75;;;;;;;16.32;43.51;101300.38;5048774;28;20037;-78
2023/06/14 00:41:05;;;;;;;13.75;3.53;;;;;;;16.23;43.62;101299.03;5052264;28;20063;-77
2023/06/14 00:43:30;;;;;;;5.25;3.08;;;;;;;16.25;43.77;101300.44;5051407;28;20029;-77
2023/06/14 00:45:55;;;;;;;5.45;3.78;;;;;;;16.20;43.96;101303.00;5050483;28;20396;-77
2023/06/14 00:48:21;;;;;;;6.22;3.55;;;;;;;16.17;44.03;101301.56;5049228;28;20135;-78
2023/06/14 00:50:48;;;;;;;7.47;3.45;;;;;;;16.14;44.09;101307.44;5042507;28;20021;-77
2023/06/14 00:53:15;;;;;;;5.60;3.05;;;;;;;16.15;44.12;101313.72;5023366;28;20121;-77
2023/06/14 00:55:40;;;;;;;6.95;3.33;;;;;;;16.07;44.40;101312.09;5015337;28;20034;-77
2023/06/14 00:58:06;;;;;;;4.97;3.20;;;;;;;15.99;44.52;101315.09;5032030;28;20037;-78
2023/06/14 01:00:31;;;;;;;6.20;3.50;;;;;;;15.92;44.99;101320.59;5049492;28;20021;-80
2023/06/14 01:02:56;;;;;;;6.75;3.50;;;;;;;15.88;44.88;101319.38;5032375;28;20036;-78
2023/06/14 01:05:22;;;;;;;4.68;3.05;;;;;;;15.83;45.14;101314.56;5048153;28;20017;-77
2023/06/14 01:08:19;;;;;;;4.85;3.22;;;;;;;15.82;45.35;101315.63;5013017;28;20021;-78
2023/06/14 01:10:56;;;;;;;4.68;3.40;;;;;;;15.74;45.41;101314.00;5050860;28;20111;-78
2023/06/14 01:13:27;;;;;;;5.55;3.05;;;;;;;15.66;45.78;101316.97;5034458;28;20109;-78
2023/06/14 01:15:52;;;;;;;6.82;3.30;;;;;;;15.58;45.85;101326.22;5030687;23;20053;-78
2023/06/14 01:18:18;;;;;;;4.72;3.20;;;;;;;15.54;46.39;101316.84;5016471;28;20115;-78
2023/06/14 01:20:49;;;;;;;4.35;3.13;;;;;;;15.50;46.20;101322.94;5026833;28;20045;-77
2023/06/14 01:23:19;;;;;;;6.50;3.40;;;;;;;15.47;46.25;101321.50;5047960;28;20024;-77
2023/06/14 01:25:44;;;;;;;7.90;3.30;;;;;;;15.44;46.44;101319.22;5048909;28;20065;-77
2023/06/14 01:28:11;;;;;;;5.35;3.30;;;;;;;15.37;46.66;101318.41;5050064;28;20158;-77
2023/06/14 01:30:47;;;;;;;6.30;3.17;;;;;;;15.31;46.75;101318.25;5030156;28;20021;-77
2023/06/14 01:33:23;;;;;;;4.20;3.20;;;;;;;15.23;47.41;101310.34;5033362;28;20476;-77
2023/06/14 01:35:50;;;;;;;5.85;3.42;;;;;;;15.15;47.30;101313.34;5029730;28;20041;-77
2023/06/14 01:38:15;;;;;;;6.82;3.65;;;;;;;15.08;47.57;101317.94;5048923;28;20099;-77
2023/06/14 01:40:45;;;;;;;4.00;3.28;;;;;;;15.04;47.99;101316.69;5011212;28;20155;-77
2023/06/14 01:43:14;;;;;;;5.55;3.33;;;;;;;15.01;47.98;101316.09;5033843;28;20025;-77
2023/06/14 01:45:40;;;;;;;5.38;3.30;;;;;;;14.98;48.41;101311.13;5015848;28;20033;-77
2023/06/14 01:48:06;;;;;;;5.43;3.38;;;;;;;14.94;48.55;101315.31;5051271;28;20036;-77
2023/06/14 01:50:31;;;;;;;7.80;3.00;;;;;;;14.92;48.62;101314.69;5047229;28;20104;-78
2023/06/14 01:52:57;;;;;;;5.53;3.50;;;;;;;14.89;48.73;101317.81;5048184;28;20044;-77
2023/06/14 01:55:24;;;;;;;10.60;3.53;;;;;;;14.83;49.10;101310.53;5042489;28;20029;-77
2023/06/14 01:57:50;;;;;;;6.72;3.22;;;;;;;14.81;48.97;101312.66;5040485;28;20111;-77
2023/06/14 02:00:15;;;;;;;5.25;3.50;;;;;;;14.79;49.01;101314.72;5049524;28;20099;-77
2023/06/14 02:02:44;;;;;;;6.50;3.35;;;;;;;14.74;49.12;101315.34;5051163;28;20032;-77
2023/06/14 02:05:10;;;;;;;3.25;2.80;;;;;;;14.76;49.42;101307.03;5044867;28;20092;-77
2023/06/14 02:07:35;;;;;;;4.97;3.40;;;;;;;14.69;49.46;101307.88;5045498;28;20060;-77
2023/06/14 02:10:01;;;;;;;6.50;3.83;;;;;;;14.65;49.78;101306.59;5047935;28;20027;-77
2023/06/14 02:12:26;;;;;;;4.53;3.55;;;;;;;14.59;49.83;101307.47;5044760;28;20035;-77
2023/06/14 02:14:51;;;;;;;4.97;3.33;;;;;;;14.58;49.84;101316.63;5044327;28;20044;-77
2023/06/14 02:17:17;;;;;;;5.30;3.22;;;;;;;14.53;50.13;101308.31;5050865;28;20041;-79
2023/06/14 02:19:42;;;;;;;7.00;3.10;;;;;;;14.52;50.57;101307.47;5049005;28;20033;-83
2023/06/14 02:22:08;;;;;;;9.65;3.53;;;;;;;14.48;50.42;101314.34;5042627;28;20029;-78
2023/06/14 02:24:39;;;;;;;5.70;3.60;;;;;;;14.49;50.64;101313.31;5049644;28;20024;-80
2023/06/14 02:27:04;;;;;;;5.43;3.03;;;;;;;14.45;50.60;101311.25;5035873;28;20402;-80
2023/06/14 02:29:30;;;;;;;4.68;3.30;;;;;;;14.34;51.12;101310.84;5047767;28;20064;-81
2023/06/14 02:31:55;;;;;;;4.72;3.20;;;;;;;14.34;51.07;101310.84;5044765;28;20046;-80
2023/06/14 02:34:22;;;;;;;3.95;3.30;;;;;;;14.31;51.34;101313.13;5028875;28;20824;-80
2023/06/14 02:36:49;;;;;;;5.32;3.00;;;;;;;14.30;51.00;101309.59;5047931;28;20392;-80
2023/06/14 02:39:15;;;;;;;6.45;3.50;;;;;;;14.29;51.25;101312.50;5045196;28;20460;-80
2023/06/14 02:41:40;;;;;;;4.63;3.22;;;;;;;14.22;51.83;101312.53;5048600;28;20104;-84
2023/06/14 02:44:06;;;;;;;5.78;3.20;;;;;;;14.23;51.92;101314.19;5052103;28;20021;-79
2023/06/14 02:46:31;;;;;;;8.90;3.70;;;;;;;14.19;52.09;101319.22;5047890;28;20025;-79
2023/06/14 02:48:57;;;;;;;6.47;3.30;;;;;;;14.20;51.63;101320.03;5049082;28;20445;-80
2023/06/14 02:51:22;;;;;;;8.52;3.40;;;;;;;14.16;51.63;101322.31;5046285;28;20029;-79
2023/06/14 02:53:47;;;;;;;4.85;3.58;;;;;;;14.15;52.20;101325.22;5049046;28;20021;-80
2023/06/14 02:56:13;;;;;;;5.22;3.50;;;;;;;14.09;52.32;101325.03;5031592;28;20021;-79
2023/06/14 02:58:39;;;;;;;13.80;3.50;;;;;;;14.08;52.24;101326.09;5044411;28;20025;-79
2023/06/14 03:01:05;;;;;;;4.30;3.17;;;;;;;14.13;52.51;101327.31;5049911;28;20032;-79
2023/06/14 03:03:30;;;;;;;5.55;3.28;;;;;;;14.06;52.60;101325.44;5051460;28;20029;-79
2023/06/14 03:05:56;;;;;;;5.43;3.50;;;;;;;14.05;52.17;101328.34;5049426;28;20556;-79
2023/06/14 03:08:26;;;;;;;8.38;3.60;;;;;;;14.05;52.61;101339.19;5048716;28;20039;-80
2023/06/14 03:10:52;;;;;;;5.95;3.25;;;;;;;14.02;52.59;101334.22;5039059;28;20115;-79
2023/06/14 03:13:20;;;;;;;4.05;3.05;;;;;;;14.02;52.57;101340.44;5027966;28;20469;-80
2023/06/14 03:15:46;;;;;;;4.18;3.08;;;;;;;13.97;52.90;101345.63;5043838;28;20033;-79
2023/06/14 03:18:14;;;;;;;7.05;3.47;;;;;;;13.93;52.91;101347.13;5049099;28;20029;-80
2023/06/14 03:20:40;;;;;;;5.43;3.65;;;;;;;13.90;52.92;101355.63;5029635;28;21424;-80
2023/06/14 03:23:06;;;;;;;5.63;3.30;;;;;;;13.88;52.96;101355.00;5048954;28;20499;-80
2023/06/14 03:25:32;;;;;;;6.40;3.50;;;;;;;13.89;53.06;101357.50;5047950;28;20035;-80
2023/06/14 03:27:59;;;;;;;5.43;3.30;;;;;;;13.86;53.16;101365.19;5046161;28;20540;-80
2023/06/14 03:30:24;;;;;;;6.25;3.40;;;;;;;13.84;53.21;101364.56;5045890;28;20064;-80
2023/06/14 03:32:55;;;;;;;5.70;3.53;;;;;;;13.87;53.39;101361.47;5044881;28;20033;-80
2023/06/14 03:35:21;;;;;;;6.47;3.40;;;;;;;13.88;53.62;101365.84;5054224;28;20028;-80
2023/06/14 03:37:46;;;;;;;5.50;3.90;;;;;;;13.88;53.56;101363.13;5047617;28;20128;-80
2023/06/14 03:40:13;;;;;;;6.50;3.40;;;;;;;13.91;53.60;101368.13;5050079;28;20079;-80
2023/06/14 03:42:38;;;;;;;5.20;3.35;;;;;;;13.95;53.47;101369.38;5047969;28;20032;-79
2023/06/14 03:45:07;;;;;;;5.30;3.25;;;;;;;13.99;53.53;101370.63;5047266;28;20029;-80
2023/06/14 03:47:32;;;;;;;7.53;3.15;;;;;;;14.00;53.40;101380.41;5042900;28;20041;-80
2023/06/14 03:49:58;;;;;;;6.65;3.63;;;;;;;14.04;53.11;101370.00;5023438;28;20076;-80
2023/06/14 03:52:23;;;;;;;6.18;3.55;;;;;;;14.04;53.32;101370.84;5049654;28;20028;-80
2023/06/14 03:54:49;;;;;;;7.55;3.55;;;;;;;14.03;53.35;101380.00;5050118;28;20029;-80
2023/06/14 03:57:15;;;;;;;4.63;3.53;;;;;;;14.07;53.25;101377.72;5052789;28;20071;-79
2023/06/14 03:59:43;;;;;;;5.57;3.60;;;;;;;14.10;53.30;101380.00;5041180;28;20029;-80
2023/06/14 04:02:09;;;;;;;4.18;3.40;;;;;;;14.14;53.40;101385.84;5041957;28;20492;-81
2023/06/14 04:04:35;;;;;;;4.75;3.47;;;;;;;14.15;53.30;101382.09;5047001;28;20034;-79
2023/06/14 04:07:03;;;;;;;4.53;3.40;;;;;;;14.15;53.39;101388.34;5047169;28;20588;-80
2023/06/14 04:09:29;;;;;;;7.05;3.50;;;;;;;14.19;53.47;101386.06;5041506;28;20021;-80
2023/06/14 04:11:55;;;;;;;5.43;3.70;;;;;;;14.20;53.40;101391.28;5048521;28;20435;-80
2023/06/14 04:14:21;;;;;;;3.60;3.10;;;;;;;14.27;53.45;101396.69;5047232;28;20025;-79
2023/06/14 04:16:46;;;;;;;7.38;3.65;;;;;;;14.28;53.26;101398.34;5053657;28;20393;-80
2023/06/14 04:19:12;;;;;;;5.88;3.67;;;;;;;14.34;53.32;101405.63;5030305;28;20632;-80
2023/06/14 04:21:40;;;;;;;4.57;3.72;;;;;;;14.37;53.26;101405.22;5049419;28;20468;-80
2023/06/14 04:24:06;;;;;;;6.50;3.97;;;;;;;14.42;53.30;101411.91;5054228;28;20025;-80
2023/06/14 04:26:33;;;;;;;5.57;3.67;;;;;;;14.51;53.08;101421.47;5051301;28;20040;-80
2023/06/14 04:29:02;;;;;;;4.63;3.63;;;;;;;14.63;52.59;101419.81;5048880;28;20144;-80
2023/06/14 04:31:29;;;;;;;8.57;3.47;;;;;;;14.78;52.16;101425.00;5036819;28;20078;-80
2023/06/14 04:33:59;;;;;;;4.10;3.42;;;;;;;14.96;52.40;101427.06;5052636;28;20079;-80
2023/06/14 04:36:24;;;;;;;3.83;3.42;;;;;;;15.67;50.48;101420.97;5046456;28;20026;-80
2023/06/14 04:38:53;;;;;;;7.55;3.90;;;;;;;16.67;47.63;101427.56;5048823;28;20033;-80
2023/06/14 04:41:20;;;;;;;5.75;3.95;;;;;;;17.41;45.91;101430.34;5043934;28;20029;-80
2023/06/14 04:43:48;;;;;;;5.10;3.33;;;;;;;18.20;44.34;101431.34;5054405;28;20021;-80
2023/06/14 04:46:17;;;;;;;7.28;3.60;;;;;;;18.74;42.88;101422.25;5030934;28;20025;-80
2023/06/14 04:48:42;;;;;;;8.13;3.67;;;;;;;19.09;42.23;101430.44;5052033;28;20028;-80
2023/06/14 04:51:08;;;;;;;6.20;3.70;;;;;;;19.66;40.90;101436.22;5046685;28;20021;-80
2023/06/14 04:53:34;;;;;;;4.55;3.33;;;;;;;19.90;40.15;101436.16;5050101;28;20028;-80
2023/06/14 04:56:00;;;;;;;8.20;3.70;;;;;;;19.10;41.28;101436.72;5051122;28;20040;-79
2023/06/14 04:58:27;;;;;;;4.25;3.50;;;;;;;19.56;40.69;101445.03;5052129;28;20032;-79
2023/06/14 05:00:53;;;;;;;5.97;3.60;;;;;;;20.33;39.03;101450.28;5051443;28;20056;-79
2023/06/14 05:03:24;;;;;;;6.15;3.58;;;;;;;20.49;38.67;101448.59;5053795;28;20483;-80
2023/06/14 05:05:53;;;;;;;4.25;3.30;;;;;;;20.60;38.82;101451.25;5051933;28;20476;-79
2023/06/14 05:08:18;;;;;;;7.80;3.20;;;;;;;20.79;38.15;101456.50;5050318;28;20036;-79
2023/06/14 05:10:43;;;;;;;6.20;3.60;;;;;;;;;;5049638;28;20016;-79
2023/06/14 05:13:10;;;;;;;7.00;3.70;;;;;;;20.69;38.53;101453.56;5049688;28;20021;-78
2023/06/14 05:15:35;;;;;;;4.90;3.25;;;;;;;20.93;37.73;101459.69;5049377;28;20040;-78
2023/06/14 05:18:09;;;;;;;3.55;3.25;;;;;;;21.40;37.23;101468.50;5052427;28;20033;-78
2023/06/14 05:20:36;;;;;;;5.55;3.47;;;;;;;21.86;36.02;101469.09;5051682;28;20075;-78
2023/06/14 05:23:02;;;;;;;9.18;3.40;;;;;;;21.89;35.99;101465.81;5045314;28;20507;-78
2023/06/14 05:25:28;;;;;;;5.07;3.05;;;;;;;22.20;34.97;101471.59;5049824;28;20017;-78
2023/06/14 05:27:53;;;;;;;5.10;2.90;;;;;;;22.60;34.99;101472.22;5050296;28;20041;-78
2023/06/14 05:30:18;;;;;;;4.22;3.20;;;;;;;22.95;34.31;101469.97;5047631;28;20052;-78
2023/06/14 05:32:44;;;;;;;5.43;3.20;;;;;;;22.36;35.05;101474.47;5047724;28;20024;-78
2023/06/14 05:35:10;;;;;;;5.93;3.00;;;;;;;22.66;34.74;101473.09;5041244;28;20025;-78
2023/06/14 05:37:37;;;;;;;6.88;3.10;;;;;;;22.68;34.62;101476.41;5048449;28;20392;-78
2023/06/14 05:40:06;;;;;;;6.70;2.97;;;;;;;22.71;34.38;101476.69;5043106;28;20041;-78
2023/06/14 05:42:32;;;;;;;3.20;2.90;;;;;;;23.31;34.20;101481.16;5047012;28;20036;-78
2023/06/14 05:44:58;;;;;;;5.25;3.15;;;;;;;23.38;33.52;101479.03;5045220;28;20049;-81
2023/06/14 05:47:27;;;;;;;2.97;2.60;;;;;;;23.49;32.85;101473.53;5041127;28;20435;-78
2023/06/14 05:49:52;;;;;;;6.45;3.20;;;;;;;23.39;33.78;101475.19;5049584;28;20139;-80
2023/06/14 05:52:19;;;;;;;5.13;3.20;;;;;;;23.08;33.48;101491.47;5049923;28;20051;-80
2023/06/14 05:54:50;;;;;;;5.32;3.05;;;;;;;23.09;33.86;101490.41;5043330;28;20047;-83
2023/06/14 05:57:15;;;;;;;6.85;2.80;;;;;;;23.68;33.05;101501.38;5046018;28;20029;-76
2023/06/14 05:59:41;;;;;;;8.57;3.53;;;;;;;23.37;33.27;101496.59;5041899;28;20047;-77
2023/06/14 06:02:06;;;;;;;9.52;3.17;;;;;;;23.38;33.38;101491.94;5041471;28;20052;-79
2023/06/14 06:04:33;;;;;;;6.68;2.90;;;;;;;23.12;34.02;101492.59;5047744;28;20132;-79
2023/06/14 06:07:00;;;;;;;5.47;3.13;;;;;;;24.04;31.78;101491.31;5048646;28;20037;-79
2023/06/14 06:09:26;;;;;;;3.45;2.80;;;;;;;23.61;33.11;101499.72;5040456;28;20458;-79
2023/06/14 06:11:54;;;;;;;4.35;2.70;;;;;;;24.14;32.31;101506.19;5043960;28;20037;-79
2023/06/14 06:14:20;;;;;;;6.25;3.42;;;;;;;24.43;31.32;101498.25;5046726;28;20040;-79
2023/06/14 06:16:45;;;;;;;3.05;2.65;;;;;;;25.18;30.77;101506.97;5041938;28;20056;-79
2023/06/14 06:19:11;;;;;;;4.75;2.72;;;;;;;25.73;30.09;101509.81;5048223;28;20028;-80
2023/06/14 06:21:37;;;;;;;6.78;3.00;;;;;;;26.23;28.43;101517.25;5048312;28;20029;-78
2023/06/14 06:24:05;;;;;;;4.65;2.80;;;;;;;26.03;28.76;101532.81;5049726;28;20123;-82
2023/06/14 06:26:30;;;;;;;6.55;2.70;;;;;;;26.00;29.05;101511.28;5048782;28;20029;-81
2023/06/14 06:28:57;;;;;;;6.07;2.80;;;;;;;24.88;29.66;101525.22;5048188;28;20043;-78
2023/06/14 06:31:23;;;;;;;3.95;2.35;;;;;;;26.24;28.54;101511.44;5041696;28;20070;-78
2023/06/14 06:33:48;;;;;;;3.28;2.33;;;;;;;26.65;27.93;101515.81;5037304;28;20037;-77
2023/06/14 06:36:14;;;;;;;3.63;2.50;;;;;;;26.56;27.50;101520.28;5041234;28;20367;-78
2023/06/14 06:38:39;;;;;;;5.07;2.25;;;;;;;26.44;28.40;101517.91;5047129;28;20040;-78
2023/06/14 06:41:05;;;;;;;3.63;2.40;;;;;;;27.63;26.58;101525.00;5046930;28;20400;-78
2023/06/14 06:43:30;;;;;;;3.95;2.40;;;;;;;27.23;26.86;101519.66;5051228;28;20032;-79
2023/06/14 06:45:55;;;;;;;2.97;2.25;;;;;;;27.46;26.50;101523.53;5051448;28;20031;-79
2023/06/14 06:48:21;;;;;;;2.65;2.33;;;;;;;28.02;26.15;101534.16;5039463;28;20134;-78
2023/06/14 06:50:46;;;;;;;3.65;2.20;;;;;;;27.80;26.00;101527.25;5047898;28;20474;-80
2023/06/14 06:53:12;;;;;;;3.40;2.33;;;;;;;27.61;25.73;101536.38;5040754;28;20033;-80
2023/06/14 06:55:37;;;;;;;6.18;2.20;;;;;;;27.93;25.90;101545.88;5047371;28;20037;-81
2023/06/14 06:58:05;;;;;;;3.58;2.50;;;;;;;26.38;27.41;101530.94;5040597;28;20032;-78
2023/06/14 07:00:31;;;;;;;5.95;2.22;;;;;;;26.84;27.13;101535.25;5048966;28;20044;-80
2023/06/14 07:02:57;;;;;;;4.15;2.47;;;;;;;27.52;26.29;101546.44;5047144;28;20033;-80
2023/06/14 07:05:22;;;;;;;3.92;2.33;;;;;;;27.65;26.09;101540.19;5041790;28;20380;-80
2023/06/14 07:07:48;;;;;;;4.05;2.35;;;;;;;28.14;25.63;101548.41;5045910;28;20032;-79
2023/06/14 07:10:13;;;;;;;2.58;2.00;;;;;;;28.33;25.03;101544.78;5040633;28;20047;-77
2023/06/14 07:12:39;;;;;;;3.55;2.38;;;;;;;28.49;25.01;101540.63;5041450;28;20033;-77
2023/06/14 07:15:09;;;;;;;4.32;2.30;;;;;;;28.71;24.68;101555.78;5047266;28;20029;-79
2023/06/14 07:17:34;;;;;;;5.35;2.20;;;;;;;27.79;26.23;101561.59;5045113;28;20406;-78
2023/06/14 07:20:11;;;;;;;2.58;2.30;;;;;;;28.61;24.82;101554.03;5046136;28;20468;-77
2023/06/14 07:22:43;;;;;;;2.80;2.30;;;;;;;28.65;24.69;101552.28;5043079;28;20029;-78
2023/06/14 07:25:14;;;;;;;4.53;2.05;;;;;;;29.75;22.89;101555.50;5039784;28;20025;-78
2023/06/14 07:27:43;;;;;;;3.28;2.40;;;;;;;29.34;23.80;101568.25;5041125;28;20064;-78
2023/06/14 07:30:13;;;;;;;2.42;2.17;;;;;;;29.61;23.10;101574.13;5047042;28;20025;-78
2023/06/14 07:32:39;;;;;;;3.35;2.33;;;;;;;29.73;23.36;101568.03;5048187;28;20581;-76
2023/06/14 07:35:05;;;;;;;2.70;2.20;;;;;;;29.85;23.02;101571.09;5038363;28;20033;-78
2023/06/14 07:37:31;;;;;;;3.13;2.20;;;;;;;30.53;22.18;101567.63;5032318;28;20029;-78
2023/06/14 07:39:57;;;;;;;2.70;2.08;;;;;;;30.27;22.64;101567.44;5047922;28;20226;-78
2023/06/14 07:42:22;;;;;;;2.20;2.00;;;;;;;29.85;23.60;101567.47;5047521;28;20508;-78
2023/06/14 07:44:47;;;;;;;4.68;2.08;;;;;;;31.18;21.72;101582.09;5048919;28;20047;-78
2023/06/14 07:47:13;;;;;;;2.55;2.00;;;;;;;29.39;23.80;101574.84;5049421;28;20109;-77
2023/06/14 07:49:41;;;;;;;4.30;2.08;;;;;;;28.89;23.59;101568.81;5039535;28;20481;-76
2023/06/14 07:52:08;;;;;;;5.03;2.00;;;;;;;28.37;24.02;101568.00;5049460;28;20086;-77
2023/06/14 07:54:33;;;;;;;4.10;2.17;;;;;;;28.20;24.46;101574.03;5043182;28;20444;-78
2023/06/14 07:57:00;;;;;;;3.75;1.85;;;;;;;27.79;24.82;101580.94;5050135;28;20039;-75
2023/06/14 07:59:27;;;;;;;2.03;1.90;;;;;;;28.11;24.61;101560.06;5044203;28;20025;-78
2023/06/14 08:01:55;;;;;;;3.13;1.98;;;;;;;29.00;24.04;101579.69;5044049;28;20115;-77
2023/06/14 08:04:20;;;;;;;3.28;1.60;;;;;;;29.00;24.25;101579.69;5050896;28;20025;-76
2023/06/14 08:06:47;;;;;;;4.40;2.15;;;;;;;28.99;23.91;101592.75;5051535;28;20032;-76
2023/06/14 08:09:13;;;;;;;3.03;1.80;;;;;;;29.05;23.89;101569.31;5051424;28;20484;-77
2023/06/14 08:11:38;;;;;;;2.83;2.00;;;;;;;28.59;24.30;101568.16;5042455;28;20036;-77
2023/06/14 08:14:04;;;;;;;7.38;2.15;;;;;;;29.35;23.35;101571.84;5052293;28;20107;-77
2023/06/14 08:16:29;;;;;;;3.53;1.80;;;;;;;29.99;22.54;101582.22;5042461;28;20045;-77
2023/06/14 08:18:55;;;;;;;4.70;1.80;;;;;;;29.89;22.49;101585.16;5049872;28;20031;-77
2023/06/14 08:21:20;;;;;;;2.70;1.60;;;;;;;29.84;22.45;101574.16;5042860;28;20388;-77
2023/06/14 08:23:46;;;;;;;2.38;1.70;;;;;;;29.62;22.93;101575.75;5047982;28;20021;-77
2023/06/14 08:26:11;;;;;;;2.05;1.85;;;;;;;30.57;21.55;101574.19;5045267;28;20044;-77
2023/06/14 08:28:37;;;;;;;3.40;1.92;;;;;;;30.27;21.96;101575.75;5025312;28;20028;-77
2023/06/14 08:31:02;;;;;;;3.05;1.98;;;;;;;29.99;22.30;101587.75;5050115;28;20366;-77
2023/06/14 08:33:27;;;;;;;2.90;1.75;;;;;;;30.42;22.49;101577.31;5050628;28;20036;-77
2023/06/14 08:35:53;;;;;;;2.55;1.65;;;;;;;31.03;21.36;101585.28;5050955;28;20029;-77
2023/06/14 08:38:18;;;;;;;2.78;1.80;;;;;;;31.48;20.54;101579.59;5043196;28;20059;-77
2023/06/14 08:40:44;;;;;;;2.58;1.80;;;;;;;32.14;19.98;101575.13;5042710;28;20021;-77
2023/06/14 08:43:09;;;;;;;2.75;1.60;;;;;;;32.33;19.72;101575.66;5012895;28;20033;-77
2023/06/14 08:45:35;;;;;;;2.30;1.60;;;;;;;30.48;21.37;101573.28;5035986;28;20134;-77
2023/06/14 08:48:01;;;;;;;2.15;1.60;;;;;;;31.51;20.04;101570.59;5024637;28;20017;-77
2023/06/14 08:50:29;;;;;;;5.38;2.00;;;;;;;30.49;21.64;101563.81;5016915;28;20028;-77
2023/06/14 08:52:57;;;;;;;5.03;1.70;;;;;;;31.78;20.17;101560.34;5050079;28;20075;-78
2023/06/14 08:55:25;;;;;;;2.15;1.42;;;;;;;32.26;18.94;101563.34;5041925;28;20025;-78
2023/06/14 08:57:51;;;;;;;3.13;1.67;;;;;;;32.72;18.44;101553.44;5041166;28;20029;-77
2023/06/14 09:00:17;;;;;;;4.75;1.50;;;;;;;32.32;19.18;101556.47;5009770;28;20036;-78
2023/06/14 09:02:43;;;;;;;2.03;1.45;;;;;;;32.08;19.11;101551.38;5031658;28;20112;-78
2023/06/14 09:05:13;;;;;;;3.70;1.70;;;;;;;31.73;19.57;101546.59;5038931;28;20037;-77
2023/06/14 09:07:42;;;;;;;4.13;1.55;;;;;;;31.82;18.97;101552.19;5028918;28;20108;-78
2023/06/14 09:10:14;;;;;;;3.20;1.67;;;;;;;30.89;20.51;101558.34;5040927;28;20384;-78
2023/06/14 09:12:40;;;;;;;1.80;1.50;;;;;;;30.14;21.23;101577.44;5032431;28;20028;-77
2023/06/14 09:15:08;;;;;;;1.98;1.65;;;;;;;30.23;21.42;101554.16;5042563;28;20094;-78
2023/06/14 09:17:34;;;;;;;2.45;1.60;;;;;;;31.06;20.52;101552.06;5044022;28;20095;-77
2023/06/14 09:20:00;;;;;;;3.30;1.60;;;;;;;32.09;19.11;101553.84;5047630;28;20033;-77
2023/06/14 09:22:26;;;;;;;1.48;1.38;;;;;;;31.64;19.76;101559.66;5050894;28;20067;-77
2023/06/14 09:24:51;;;;;;;3.47;1.50;;;;;;;30.76;19.75;101567.59;5031431;28;20125;-78
2023/06/14 09:27:19;;;;;;;5.35;1.60;;;;;;;29.63;20.28;101560.75;5048790;28;20388;-77
2023/06/14 09:29:45;;;;;;;3.05;1.40;;;;;;;29.46;20.62;101556.66;5043039;28;20028;-77
2023/06/14 09:32:10;;;;;;;4.00;1.70;;;;;;;29.12;20.76;101549.53;5048853;28;20041;-77
2023/06/14 09:34:36;;;;;;;2.28;1.60;;;;;;;28.79;21.49;101557.88;5049215;28;20591;-77
2023/06/14 09:37:01;;;;;;;2.30;1.60;;;;;;;28.16;22.38;101567.47;5009025;28;20483;-77
2023/06/14 09:39:27;;;;;;;2.15;1.52;;;;;;;27.45;23.22;101559.75;5040249;28;20025;-77
2023/06/14 09:41:52;;;;;;;4.07;1.80;;;;;;;26.74;23.21;101554.69;5041065;28;20425;-76
2023/06/14 09:44:18;;;;;;;2.15;1.90;;;;;;;28.78;21.80;101561.78;5044293;28;20025;-76
2023/06/14 09:46:43;;;;;;;2.40;1.80;;;;;;;29.90;19.90;101565.44;5015794;28;20409;-76
2023/06/14 09:49:09;;;;;;;2.30;1.80;;;;;;;29.76;20.38;101573.78;5031203;28;20029;-76
2023/06/14 09:51:35;;;;;;;1.98;1.80;;;;;;;29.45;19.88;101579.16;5045917;28;20026;-76
2023/06/14 09:54:01;;;;;;;3.85;1.67;;;;;;;29.49;20.69;101578.22;5027049;28;20393;-75
2023/06/14 09:56:29;;;;;;;4.35;1.90;;;;;;;29.57;21.24;101581.41;5048944;28;20540;-76
2023/06/14 09:58:58;;;;;;;2.72;1.85;;;;;;;30.27;20.77;101576.56;5043200;28;20064;-76
2023/06/14 10:01:25;;;;;;;2.53;1.85;;;;;;;29.90;19.88;101584.88;5049014;28;20032;-76
2023/06/14 10:03:50;;;;;;;1.95;1.75;;;;;;;30.77;19.52;101572.03;5041573;28;20065;-76
2023/06/14 10:06:16;;;;;;;3.25;1.73;;;;;;;30.06;20.97;101582.59;5032623;28;20056;-76
2023/06/14 10:08:41;;;;;;;2.97;1.80;;;;;;;29.46;21.37;101575.25;5014049;28;20055;-76
2023/06/14 10:11:06;;;;;;;3.30;1.60;;;;;;;30.07;20.85;101587.00;5030519;28;20025;-76
2023/06/14 10:13:33;;;;;;;3.25;1.80;;;;;;;29.53;21.06;101583.16;5042000;28;20492;-77
2023/06/14 10:16:06;;;;;;;3.58;1.70;;;;;;;29.87;21.09;101585.50;5048500;28;20041;-77
2023/06/14 10:18:59;;;;;;;3.15;2.00;;;;;;;30.02;21.28;101587.13;5029557;28;20291;-77
2023/06/14 10:22:04;;;;;;;3.83;2.10;;;;;;;29.15;22.39;101598.00;5031704;28;20094;-78
2023/06/14 10:24:33;;;;;;;2.85;2.00;;;;;;;29.69;21.90;101589.22;4966371;28;20046;-78
2023/06/14 10:27:02;;;;;;;4.35;1.83;;;;;;;30.38;21.42;101577.16;5008906;28;20045;-77
2023/06/14 10:29:32;;;;;;;2.90;1.60;;;;;;;31.44;20.50;101573.84;5049630;28;20028;-77
2023/06/14 10:31:58;;;;;;;2.00;1.80;;;;;;;30.81;20.86;101581.38;5041269;28;20025;-77
2023/06/14 10:34:28;;;;;;;3.75;1.75;;;;;;;30.87;20.79;101577.34;5046948;28;20025;-77
2023/06/14 10:37:04;;;;;;;2.33;1.88;;;;;;;30.47;21.55;101580.00;5041833;28;20445;-77
2023/06/14 10:39:29;;;;;;;3.72;1.88;;;;;;;29.80;21.92;101572.03;5044561;28;20033;-77
2023/06/14 10:41:56;;;;;;;2.22;1.70;;;;;;;29.68;21.92;101580.06;5043002;28;20366;-77
2023/06/14 10:44:21;;;;;;;2.63;1.75;;;;;;;30.00;21.40;101569.13;5047485;28;20527;-77
2023/06/14 10:46:47;;;;;;;6.50;1.90;;;;;;;28.50;22.75;101578.28;5048229;28;20025;-77
2023/06/14 10:49:14;;;;;;;2.80;1.67;;;;;;;29.32;21.84;101572.44;5047748;28;20284;-77
2023/06/14 10:51:46;;;;;;;3.33;1.52;;;;;;;28.76;22.24;101575.13;5014426;28;20059;-77
2023/06/14 10:54:14;;;;;;;2.10;1.75;;;;;;;28.53;22.46;101565.78;5048441;28;20025;-76
2023/06/14 10:57:00;;;;;;;3.47;1.75;;;;;;;28.05;23.24;101573.13;5040413;28;20060;-76
2023/06/14 10:59:25;;;;;;;2.60;1.60;;;;;;;28.91;22.75;101576.81;5047396;28;20033;-76
2023/06/14 11:02:20;;;;;;;1.45;1.35;;;;;;;30.02;22.06;101580.75;5030729;28;20036;-77
2023/06/14 11:04:52;;;;;;;2.67;1.60;;;;;;;29.58;21.39;101588.59;5040318;28;20048;-77
2023/06/14 11:07:45;;;;;;;1.90;1.70;;;;;;;29.88;21.82;101575.19;5040239;28;20037;-75
2023/06/14 11:10:39;;;;;;;3.83;1.67;;;;;;;29.65;21.79;101561.28;5040572;28;20127;-77
2023/06/14 11:13:04;;;;;;;3.95;1.70;;;;;;;29.03;21.87;101571.56;5042355;28;20029;-77
2023/06/14 11:15:30;;;;;;;2.50;1.40;;;;;;;29.34;22.05;101568.25;5040653;28;20086;-76
2023/06/14 11:17:57;;;;;;;2.03;1.55;;;;;;;30.09;21.34;101564.50;5030389;28;20045;-77
2023/06/14 11:20:25;;;;;;;2.50;1.55;;;;;;;30.48;21.24;101582.44;5047399;28;20041;-77
2023/06/14 11:22:51;;;;;;;2.28;1.77;;;;;;;30.08;21.57;101568.41;5051688;28;20381;-76
2023/06/14 11:25:16;;;;;;;1.80;1.70;;;;;;;30.97;20.75;101570.69;5051979;28;20070;-77
2023/06/14 11:27:42;;;;;;;2.65;1.38;;;;;;;29.87;21.63;101568.84;5047821;28;20033;-76